sensor_id;sensor_type;location;lat;lon;timestamp;P1;durP1;ratioP1;P2;durP2;ratioP2
25169;SDS011;13129;48.012;10.352;2023-05-07T15:56:18;3.75;;;3.53;;
25169;SDS011;13129;48.012;10.352;2023-05-07T15:58:45;3.67;;;3.40;;
25169;SDS011;13129;48.012;10.352;2023-05-07T16:01:12;5.18;;;4.50;;
25169;SDS011;13129;48.012;10.352;2023-05-07T16:03:37;4.22;;;3.80;;
25169;SDS011;13129;48.012;10.352;2023-05-07T16:06:05;4.28;;;3.88;;
25169;SDS011;13129;48.012;10.352;2023-05-07T16:08:30;5.60;;;3.95;;
25169;SDS011;13129;48.012;10.352;2023-05-07T16:10:57;4.78;;;3.85;;
25169;SDS011;13129;48.012;10.352;2023-05-07T16:13:23;4.43;;;3.58;;
25169;SDS011;13129;48.012;10.352;2023-05-07T16:15:54;4.13;;;3.83;;
25169;SDS011;13129;48.012;10.352;2023-05-07T16:18:22;4.53;;;3.85;;
25169;SDS011;13129;48.012;10.352;2023-05-07T16:20:47;4.72;;;4.32;;
25169;SDS011;13129;48.012;10.352;2023-05-07T16:23:13;4.00;;;3.70;;
25169;SDS011;13129;48.012;10.352;2023-05-07T16:25:39;4.05;;;3.75;;
25169;SDS011;13129;48.012;10.352;2023-05-07T16:28:05;4.15;;;3.83;;
25169;SDS011;13129;48.012;10.352;2023-05-07T16:30:31;4.88;;;4.45;;
25169;SDS011;13129;48.012;10.352;2023-05-07T16:32:57;4.00;;;3.67;;
25169;SDS011;13129;48.012;10.352;2023-05-07T16:35:23;4.55;;;4.20;;
25169;SDS011;13129;48.012;10.352;2023-05-07T16:37:48;5.82;;;4.25;;
25169;SDS011;13129;48.012;10.352;2023-05-07T16:40:14;4.63;;;4.25;;
25169;SDS011;13129;48.012;10.352;2023-05-07T16:42:40;4.80;;;3.95;;
25169;SDS011;13129;48.012;10.352;2023-05-07T16:45:06;7.03;;;4.65;;
25169;SDS011;13129;48.012;10.352;2023-05-07T16:47:32;4.25;;;3.95;;
25169;SDS011;13129;48.012;10.352;2023-05-07T16:49:58;4.32;;;3.92;;
25169;SDS011;13129;48.012;10.352;2023-05-07T16:52:25;5.00;;;4.60;;
25169;SDS011;13129;48.012;10.352;2023-05-07T16:54:51;6.60;;;4.53;;
25169;SDS011;13129;48.012;10.352;2023-05-07T16:57:22;5.35;;;5.00;;
25169;SDS011;13129;48.012;10.352;2023-05-07T16:59:50;5.28;;;4.85;;
25169;SDS011;13129;48.012;10.352;2023-05-07T17:02:16;6.57;;;5.50;;
25169;SDS011;13129;48.012;10.352;2023-05-07T17:04:42;6.60;;;5.95;;
25169;SDS011;13129;48.012;10.352;2023-05-07T17:07:08;6.93;;;6.20;;
25169;SDS011;13129;48.012;10.352;2023-05-07T17:09:34;6.50;;;5.95;;
25169;SDS011;13129;48.012;10.352;2023-05-07T17:12:00;12.15;;;6.45;;
25169;SDS011;13129;48.012;10.352;2023-05-07T17:17:12;4.00;;;3.60;;
25169;SDS011;13129;48.012;10.352;2023-05-07T17:19:37;3.25;;;2.97;;
25169;SDS011;13129;48.012;10.352;2023-05-07T17:22:03;6.32;;;2.70;;
25169;SDS011;13129;48.012;10.352;2023-05-07T17:24:29;3.10;;;2.88;;
25169;SDS011;13129;48.012;10.352;2023-05-07T17:26:55;3.53;;;2.60;;
25169;SDS011;13129;48.012;10.352;2023-05-07T17:29:20;3.33;;;3.10;;
25169;SDS011;13129;48.012;10.352;2023-05-07T17:31:46;3.33;;;2.75;;
25169;SDS011;13129;48.012;10.352;2023-05-07T17:34:13;3.83;;;3.50;;
25169;SDS011;13129;48.012;10.352;2023-05-07T17:36:39;8.55;;;5.10;;
25169;SDS011;13129;48.012;10.352;2023-05-07T17:39:05;8.95;;;5.50;;
25169;SDS011;13129;48.012;10.352;2023-05-07T17:41:30;5.85;;;4.72;;
25169;SDS011;13129;48.012;10.352;2023-05-07T17:44:00;6.72;;;4.40;;
25169;SDS011;13129;48.012;10.352;2023-05-07T17:46:25;6.00;;;4.50;;
25169;SDS011;13129;48.012;10.352;2023-05-07T17:48:51;8.77;;;5.47;;
25169;SDS011;13129;48.012;10.352;2023-05-07T17:51:17;5.95;;;5.38;;
25169;SDS011;13129;48.012;10.352;2023-05-07T17:53:42;6.38;;;5.78;;
25169;SDS011;13129;48.012;10.352;2023-05-07T17:56:08;6.25;;;5.75;;
25169;SDS011;13129;48.012;10.352;2023-05-07T17:58:33;7.18;;;5.90;;
25169;SDS011;13129;48.012;10.352;2023-05-07T18:01:00;5.53;;;5.13;;
25169;SDS011;13129;48.012;10.352;2023-05-07T18:03:25;5.93;;;5.38;;
25169;SDS011;13129;48.012;10.352;2023-05-07T18:05:53;7.65;;;5.68;;
25169;SDS011;13129;48.012;10.352;2023-05-07T18:08:18;6.32;;;4.80;;
25169;SDS011;13129;48.012;10.352;2023-05-07T18:10:44;4.82;;;4.43;;
25169;SDS011;13129;48.012;10.352;2023-05-07T18:13:10;4.88;;;3.97;;
25169;SDS011;13129;48.012;10.352;2023-05-07T18:15:36;4.22;;;3.72;;
25169;SDS011;13129;48.012;10.352;2023-05-07T18:18:02;6.38;;;4.78;;
25169;SDS011;13129;48.012;10.352;2023-05-07T18:20:27;6.20;;;4.80;;
25169;SDS011;13129;48.012;10.352;2023-05-07T18:22:53;5.88;;;5.30;;
25169;SDS011;13129;48.012;10.352;2023-05-07T18:25:19;6.28;;;5.45;;
25169;SDS011;13129;48.012;10.352;2023-05-07T18:27:44;5.00;;;4.43;;
25169;SDS011;13129;48.012;10.352;2023-05-07T18:30:10;5.40;;;4.90;;
25169;SDS011;13129;48.012;10.352;2023-05-07T18:32:36;6.57;;;4.88;;
25169;SDS011;13129;48.012;10.352;2023-05-07T18:35:02;5.15;;;4.68;;
25169;SDS011;13129;48.012;10.352;2023-05-07T18:37:28;5.90;;;5.30;;
25169;SDS011;13129;48.012;10.352;2023-05-07T18:39:53;5.18;;;4.68;;
25169;SDS011;13129;48.012;10.352;2023-05-07T18:42:19;6.82;;;5.22;;
25169;SDS011;13129;48.012;10.352;2023-05-07T18:44:45;5.40;;;5.00;;
25169;SDS011;13129;48.012;10.352;2023-05-07T18:47:10;5.25;;;4.78;;
25169;SDS011;13129;48.012;10.352;2023-05-07T18:49:37;4.70;;;4.30;;
25169;SDS011;13129;48.012;10.352;2023-05-07T18:52:03;5.15;;;4.65;;
25169;SDS011;13129;48.012;10.352;2023-05-07T18:54:29;5.00;;;4.50;;
25169;SDS011;13129;48.012;10.352;2023-05-07T18:56:54;4.65;;;4.25;;
25169;SDS011;13129;48.012;10.352;2023-05-07T18:59:20;4.88;;;4.35;;
25169;SDS011;13129;48.012;10.352;2023-05-07T19:01:46;5.03;;;3.70;;
25169;SDS011;13129;48.012;10.352;2023-05-07T19:04:11;4.60;;;3.55;;
25169;SDS011;13129;48.012;10.352;2023-05-07T19:06:37;5.65;;;4.55;;
25169;SDS011;13129;48.012;10.352;2023-05-07T19:09:03;4.68;;;4.32;;
25169;SDS011;13129;48.012;10.352;2023-05-07T19:11:29;4.78;;;4.22;;
25169;SDS011;13129;48.012;10.352;2023-05-07T19:13:55;5.57;;;4.75;;
25169;SDS011;13129;48.012;10.352;2023-05-07T19:16:20;6.25;;;5.30;;
25169;SDS011;13129;48.012;10.352;2023-05-07T19:18:46;8.10;;;5.90;;
25169;SDS011;13129;48.012;10.352;2023-05-07T19:21:12;6.50;;;5.15;;
25169;SDS011;13129;48.012;10.352;2023-05-07T19:23:38;5.43;;;5.03;;
25169;SDS011;13129;48.012;10.352;2023-05-07T19:26:06;5.82;;;4.70;;
25169;SDS011;13129;48.012;10.352;2023-05-07T19:28:34;4.93;;;4.60;;
25169;SDS011;13129;48.012;10.352;2023-05-07T19:31:00;5.28;;;4.78;;
25169;SDS011;13129;48.012;10.352;2023-05-07T19:33:25;5.70;;;5.20;;
25169;SDS011;13129;48.012;10.352;2023-05-07T19:35:53;14.93;;;13.25;;
25169;SDS011;13129;48.012;10.352;2023-05-07T19:38:22;8.27;;;7.47;;
25169;SDS011;13129;48.012;10.352;2023-05-07T19:40:48;6.53;;;6.03;;
25169;SDS011;13129;48.012;10.352;2023-05-07T19:43:14;7.85;;;6.93;;
25169;SDS011;13129;48.012;10.352;2023-05-07T19:45:40;7.50;;;6.80;;
25169;SDS011;13129;48.012;10.352;2023-05-07T19:48:07;6.22;;;5.63;;
25169;SDS011;13129;48.012;10.352;2023-05-07T19:50:33;6.60;;;5.95;;
25169;SDS011;13129;48.012;10.352;2023-05-07T19:52:58;6.93;;;6.32;;
25169;SDS011;13129;48.012;10.352;2023-05-07T19:55:24;7.22;;;6.53;;
25169;SDS011;13129;48.012;10.352;2023-05-07T19:57:50;8.70;;;7.95;;
25169;SDS011;13129;48.012;10.352;2023-05-07T20:00:15;8.88;;;8.07;;
25169;SDS011;13129;48.012;10.352;2023-05-07T20:02:41;9.38;;;8.57;;
25169;SDS011;13129;48.012;10.352;2023-05-07T20:07:53;7.78;;;7.07;;
25169;SDS011;13129;48.012;10.352;2023-05-07T20:10:19;7.13;;;5.63;;
25169;SDS011;13129;48.012;10.352;2023-05-07T20:12:45;6.40;;;5.90;;
25169;SDS011;13129;48.012;10.352;2023-05-07T20:15:11;7.43;;;6.82;;
25169;SDS011;13129;48.012;10.352;2023-05-07T20:17:37;8.20;;;7.47;;
25169;SDS011;13129;48.012;10.352;2023-05-07T20:20:02;9.10;;;8.20;;
25169;SDS011;13129;48.012;10.352;2023-05-07T20:22:29;8.27;;;6.60;;
25169;SDS011;13129;48.012;10.352;2023-05-07T20:24:55;8.35;;;7.55;;
25169;SDS011;13129;48.012;10.352;2023-05-07T20:27:21;9.52;;;7.60;;
25169;SDS011;13129;48.012;10.352;2023-05-07T20:29:49;7.20;;;6.60;;
25169;SDS011;13129;48.012;10.352;2023-05-07T20:32:15;7.45;;;6.75;;
25169;SDS011;13129;48.012;10.352;2023-05-07T20:34:43;8.30;;;6.68;;
25169;SDS011;13129;48.012;10.352;2023-05-07T20:37:09;8.48;;;6.80;;
25169;SDS011;13129;48.012;10.352;2023-05-07T20:39:38;7.50;;;6.72;;
25169;SDS011;13129;48.012;10.352;2023-05-07T20:42:07;8.45;;;6.90;;
25169;SDS011;13129;48.012;10.352;2023-05-07T20:44:33;7.20;;;6.63;;
25169;SDS011;13129;48.012;10.352;2023-05-07T20:46:59;7.68;;;6.97;;
25169;SDS011;13129;48.012;10.352;2023-05-07T20:49:25;7.25;;;6.57;;
25169;SDS011;13129;48.012;10.352;2023-05-07T20:51:50;8.05;;;7.30;;
25169;SDS011;13129;48.012;10.352;2023-05-07T20:54:16;7.35;;;6.45;;
25169;SDS011;13129;48.012;10.352;2023-05-07T20:56:42;7.57;;;6.82;;
25169;SDS011;13129;48.012;10.352;2023-05-07T20:59:07;7.78;;;7.13;;
25169;SDS011;13129;48.012;10.352;2023-05-07T21:01:33;7.03;;;6.45;;
25169;SDS011;13129;48.012;10.352;2023-05-07T21:04:00;6.90;;;6.30;;
25169;SDS011;13129;48.012;10.352;2023-05-07T21:06:26;7.60;;;6.57;;
25169;SDS011;13129;48.012;10.352;2023-05-07T21:08:51;7.38;;;6.68;;
25169;SDS011;13129;48.012;10.352;2023-05-07T21:11:17;7.18;;;6.57;;
25169;SDS011;13129;48.012;10.352;2023-05-07T21:13:43;6.95;;;6.35;;
25169;SDS011;13129;48.012;10.352;2023-05-07T21:16:09;7.80;;;6.13;;
25169;SDS011;13129;48.012;10.352;2023-05-07T21:18:35;7.47;;;6.70;;
25169;SDS011;13129;48.012;10.352;2023-05-07T21:21:01;7.72;;;6.97;;
25169;SDS011;13129;48.012;10.352;2023-05-07T21:23:31;7.75;;;6.95;;
25169;SDS011;13129;48.012;10.352;2023-05-07T21:25:56;6.90;;;6.30;;
25169;SDS011;13129;48.012;10.352;2023-05-07T21:28:22;6.72;;;6.22;;
25169;SDS011;13129;48.012;10.352;2023-05-07T21:30:47;7.07;;;6.50;;
25169;SDS011;13129;48.012;10.352;2023-05-07T21:33:13;7.97;;;7.28;;
25169;SDS011;13129;48.012;10.352;2023-05-07T21:35:39;8.50;;;7.80;;
25169;SDS011;13129;48.012;10.352;2023-05-07T21:38:04;8.23;;;7.10;;
25169;SDS011;13129;48.012;10.352;2023-05-07T21:40:30;8.00;;;7.30;;
25169;SDS011;13129;48.012;10.352;2023-05-07T21:42:56;7.63;;;6.95;;
25169;SDS011;13129;48.012;10.352;2023-05-07T21:45:23;7.97;;;7.28;;
25169;SDS011;13129;48.012;10.352;2023-05-07T21:47:49;8.07;;;7.28;;
25169;SDS011;13129;48.012;10.352;2023-05-07T21:50:15;7.75;;;6.90;;
25169;SDS011;13129;48.012;10.352;2023-05-07T21:52:41;8.60;;;7.90;;
25169;SDS011;13129;48.012;10.352;2023-05-07T21:55:07;7.95;;;7.22;;
25169;SDS011;13129;48.012;10.352;2023-05-07T21:57:33;8.75;;;7.95;;
25169;SDS011;13129;48.012;10.352;2023-05-07T22:00:00;8.50;;;7.70;;
25169;SDS011;13129;48.012;10.352;2023-05-07T22:02:26;8.70;;;7.95;;
25169;SDS011;13129;48.012;10.352;2023-05-07T22:04:51;8.38;;;7.68;;
25169;SDS011;13129;48.012;10.352;2023-05-07T22:07:17;8.40;;;7.70;;
25169;SDS011;13129;48.012;10.352;2023-05-07T22:09:43;8.20;;;7.43;;
25169;SDS011;13129;48.012;10.352;2023-05-07T22:12:09;10.32;;;9.32;;
25169;SDS011;13129;48.012;10.352;2023-05-07T22:14:35;9.50;;;8.60;;
25169;SDS011;13129;48.012;10.352;2023-05-07T22:17:00;8.98;;;8.23;;
25169;SDS011;13129;48.012;10.352;2023-05-07T22:19:26;9.57;;;8.68;;
25169;SDS011;13129;48.012;10.352;2023-05-07T22:21:52;10.60;;;8.98;;
25169;SDS011;13129;48.012;10.352;2023-05-07T22:24:17;9.25;;;8.55;;
25169;SDS011;13129;48.012;10.352;2023-05-07T22:26:43;9.02;;;8.23;;
25169;SDS011;13129;48.012;10.352;2023-05-07T22:29:09;8.80;;;8.02;;
25169;SDS011;13129;48.012;10.352;2023-05-07T22:31:35;9.10;;;8.30;;
25169;SDS011;13129;48.012;10.352;2023-05-07T22:34:00;7.93;;;7.22;;
25169;SDS011;13129;48.012;10.352;2023-05-07T22:36:26;8.82;;;8.02;;
25169;SDS011;13129;48.012;10.352;2023-05-07T22:38:51;8.48;;;7.78;;
25169;SDS011;13129;48.012;10.352;2023-05-07T22:41:17;7.13;;;6.53;;
25169;SDS011;13129;48.012;10.352;2023-05-07T22:43:43;7.28;;;6.70;;
25169;SDS011;13129;48.012;10.352;2023-05-07T22:46:08;6.03;;;5.43;;
25169;SDS011;13129;48.012;10.352;2023-05-07T22:48:34;5.28;;;4.88;;
25169;SDS011;13129;48.012;10.352;2023-05-07T22:51:00;4.28;;;3.75;;
25169;SDS011;13129;48.012;10.352;2023-05-07T22:53:25;4.97;;;4.18;;
25169;SDS011;13129;48.012;10.352;2023-05-07T22:55:51;4.07;;;3.78;;
25169;SDS011;13129;48.012;10.352;2023-05-07T22:58:17;4.35;;;3.95;;
